Terminal Aerodrome Forecast
Issued by NWS

Current Version | Previous Version | Text Only | Print | Product List | Glossary On
Versions: 1 2 3 4 5 6 7 8 9 10 11 12 13 14 15 16 17 18 19 20 21 22 23
204
FTUS41 KCAR 192059 AAC
TAFPQI
TAF AMD
KPQI 192059Z 1921/2018 31005KT P6SM BKN018
     FM192300 33006KT P6SM BKN020
     FM200100 33006KT P6SM BKN035
     FM200400 33006KT P6SM -SHSN BKN030
     FM200700 33007KT P6SM BKN120
     FM201300 33010G19KT P6SM -SHSN BKN020=

USA.gov is the U.S. government's official web portal to all federal, state and local government web resources and services.